Time;durP1;ratioP1;P1;durP2;ratioP2;P2;SDS_P1;SDS_P2;PMS_P1;PMS_P2;Temp;Humidity;BMP_temperature;BMP_pressure;BME280_temperature;BME280_humidity;BME280_pressure;Samples;Min_cycle;Max_cycle;Signal;HPM_P1;HPM_P2
2023/09/23 04:32:12;;;;;;;0.00;0.00;;;11.20;81.80;;;;;;5052355;23;20105;-74
2023/09/23 04:34:38;;;;;;;0.00;0.00;;;11.20;81.90;;;;;;4939235;29;20032;-73
2023/09/23 04:37:04;;;;;;;0.10;0.10;;;11.20;81.70;;;;;;4937463;29;20535;-73
2023/09/23 04:39:32;;;;;;;0.10;0.10;;;11.20;81.80;;;;;;4922256;29;20403;-73
2023/09/23 04:41:57;;;;;;;0.00;0.00;;;11.10;81.70;;;;;;4936050;29;20533;-74
2023/09/23 04:44:24;;;;;;;0.00;0.00;;;11.10;82.00;;;;;;4922288;29;20039;-74
2023/09/23 04:46:50;;;;;;;0.10;0.10;;;11.10;82.00;;;;;;4921773;29;20803;-74
2023/09/23 04:49:16;;;;;;;0.10;0.10;;;11.10;82.00;;;;;;4931779;29;20051;-73
2023/09/23 04:51:41;;;;;;;0.10;0.10;;;11.00;82.00;;;;;;4905346;29;20044;-74
2023/09/23 04:54:07;;;;;;;0.10;0.10;;;11.00;82.00;;;;;;4920474;29;20092;-74
2023/09/23 04:56:32;;;;;;;0.10;0.10;;;11.00;81.80;;;;;;4921913;29;20036;-74
2023/09/23 04:58:58;;;;;;;0.10;0.10;;;10.90;81.70;;;;;;4921950;29;20032;-74
2023/09/23 05:01:24;;;;;;;0.10;0.10;;;10.90;82.00;;;;;;4927857;29;20032;-75
2023/09/23 05:03:52;;;;;;;0.08;0.08;;;10.90;82.10;;;;;;4929995;29;20028;-75
2023/09/23 05:06:17;;;;;;;0.10;0.10;;;10.90;82.10;;;;;;4939734;29;20066;-75
2023/09/23 05:08:43;;;;;;;0.10;0.10;;;10.80;82.00;;;;;;4919479;29;20503;-74
2023/09/23 05:11:11;;;;;;;0.10;0.10;;;10.80;82.00;;;;;;4921766;29;20040;-75
2023/09/23 05:13:37;;;;;;;0.10;0.10;;;10.80;82.00;;;;;;4904814;29;20024;-75
2023/09/23 05:16:03;;;;;;;0.10;0.10;;;10.80;82.00;;;;;;4921612;29;20035;-74
2023/09/23 05:18:29;;;;;;;0.10;0.10;;;10.80;81.90;;;;;;4921471;29;20119;-75
2023/09/23 05:20:55;;;;;;;0.10;0.10;;;10.80;82.10;;;;;;4921576;29;20069;-75
2023/09/23 05:23:23;;;;;;;0.10;0.10;;;10.70;82.00;;;;;;4920205;29;20017;-75
2023/09/23 05:25:50;;;;;;;0.00;0.00;;;10.70;82.20;;;;;;4921345;29;20027;-75
2023/09/23 05:28:15;;;;;;;0.10;0.08;;;10.70;82.30;;;;;;4921457;29;20032;-75
2023/09/23 05:30:41;;;;;;;0.10;0.10;;;10.70;82.30;;;;;;4921352;29;20139;-74
2023/09/23 05:33:10;;;;;;;0.10;0.10;;;10.60;82.40;;;;;;4920786;29;20502;-75
2023/09/23 05:35:38;;;;;;;0.10;0.10;;;10.70;82.60;;;;;;4933956;29;20036;-75
2023/09/23 05:38:04;;;;;;;0.10;0.10;;;10.60;82.70;;;;;;4940150;29;20023;-75
2023/09/23 05:40:30;;;;;;;0.00;0.00;;;10.60;82.80;;;;;;4939257;29;20071;-75
2023/09/23 05:42:55;;;;;;;0.10;0.10;;;10.60;82.70;;;;;;4923089;29;20028;-75
2023/09/23 05:45:24;;;;;;;0.10;0.10;;;10.60;82.70;;;;;;4939246;29;20024;-74
2023/09/23 05:47:51;;;;;;;0.10;0.10;;;10.70;82.50;;;;;;4910794;29;20036;-75
2023/09/23 05:50:17;;;;;;;0.10;0.10;;;10.70;82.50;;;;;;4921204;29;20032;-74
2023/09/23 05:52:46;;;;;;;0.10;0.10;;;10.70;82.60;;;;;;4920739;29;20031;-76
2023/09/23 05:55:13;;;;;;;0.10;0.10;;;10.80;82.50;;;;;;4920822;29;20131;-76
2023/09/23 05:57:40;;;;;;;0.10;0.10;;;10.80;82.60;;;;;;4918311;29;20032;-82
2023/09/23 06:00:08;;;;;;;0.20;0.10;;;10.90;82.40;;;;;;4925389;29;20039;-81
2023/09/23 06:02:34;;;;;;;0.10;0.10;;;10.90;82.20;;;;;;4922599;29;20019;-78
2023/09/23 06:05:01;;;;;;;0.10;0.10;;;10.90;82.20;;;;;;4937263;29;20024;-80
2023/09/23 06:07:27;;;;;;;0.10;0.10;;;11.00;82.10;;;;;;4920815;29;20031;-89
2023/09/23 06:09:53;;;;;;;0.10;0.10;;;11.00;82.30;;;;;;4904050;29;20036;-80
2023/09/23 06:12:19;;;;;;;0.00;0.00;;;11.00;82.30;;;;;;4903550;29;20387;-79
2023/09/23 06:14:45;;;;;;;0.10;0.10;;;11.10;82.40;;;;;;4919302;29;20044;-80
2023/09/23 06:17:11;;;;;;;0.10;0.10;;;11.10;82.10;;;;;;4927634;29;20036;-83
2023/09/23 06:19:37;;;;;;;0.10;0.10;;;11.20;82.00;;;;;;4937282;29;20028;-81
2023/09/23 06:22:03;;;;;;;0.10;0.10;;;11.20;81.90;;;;;;4920471;29;20048;-80
2023/09/23 06:24:28;;;;;;;0.10;0.10;;;11.20;82.00;;;;;;4907728;29;20084;-80
2023/09/23 06:26:54;;;;;;;0.10;0.10;;;11.30;81.90;;;;;;4931148;29;20084;-78
2023/09/23 06:29:20;;;;;;;0.10;0.10;;;11.30;81.70;;;;;;4903689;29;20043;-78
2023/09/23 06:31:45;;;;;;;0.10;0.10;;;11.30;81.70;;;;;;4920212;29;20051;-79
2023/09/23 06:34:11;;;;;;;0.10;0.10;;;11.30;81.50;;;;;;4915288;29;20039;-78
2023/09/23 06:36:37;;;;;;;0.10;0.10;;;11.30;81.70;;;;;;4927095;29;20036;-79
2023/09/23 06:39:03;;;;;;;0.10;0.10;;;11.30;81.50;;;;;;4927476;29;20027;-79
2023/09/23 06:41:28;;;;;;;0.10;0.10;;;11.30;81.70;;;;;;4937367;29;20051;-82
2023/09/23 06:43:54;;;;;;;0.10;0.10;;;11.30;81.70;;;;;;4931236;29;20032;-78
2023/09/23 06:46:20;;;;;;;0.10;0.10;;;11.40;81.60;;;;;;4925894;29;20034;-78
2023/09/23 06:48:45;;;;;;;0.10;0.10;;;11.50;81.50;;;;;;4928122;29;20064;-76
2023/09/23 06:51:11;;;;;;;0.10;0.10;;;11.50;81.50;;;;;;4938588;29;20062;-82
2023/09/23 06:53:37;;;;;;;0.10;0.10;;;11.60;81.50;;;;;;4917080;29;20039;-77
2023/09/23 06:56:03;;;;;;;0.10;0.10;;;11.70;81.10;;;;;;4916926;29;20037;-77
2023/09/23 06:58:29;;;;;;;0.10;0.10;;;11.70;81.10;;;;;;4917418;29;20040;-79
2023/09/23 07:00:55;;;;;;;0.10;0.10;;;11.80;80.90;;;;;;4919587;29;20406;-78
2023/09/23 07:03:21;;;;;;;0.10;0.10;;;11.80;81.00;;;;;;4926617;29;20075;-78
2023/09/23 07:05:47;;;;;;;0.10;0.10;;;12.00;80.70;;;;;;4937156;29;20019;-79
2023/09/23 07:08:13;;;;;;;0.20;0.20;;;12.30;80.30;;;;;;4938209;29;20019;-78
2023/09/23 07:10:40;;;;;;;0.10;0.10;;;12.90;78.80;;;;;;4937493;29;20024;-78
2023/09/23 07:13:06;;;;;;;0.10;0.10;;;13.00;78.20;;;;;;4923965;29;20040;-78
2023/09/23 07:15:39;;;;;;;0.20;0.20;;;13.00;77.90;;;;;;4914716;29;20551;-78
2023/09/23 07:18:05;;;;;;;;;;;13.00;77.70;;;;;;4919535;29;20031;-79
2023/09/23 07:20:31;;;;;;;0.20;0.20;;;14.30;75.50;;;;;;4920493;29;19922;-79
2023/09/23 07:22:58;;;;;;;0.10;0.10;;;16.00;70.80;;;;;;4920564;29;20034;-78
2023/09/23 07:25:24;;;;;;;0.10;0.10;;;17.30;67.10;;;;;;4938482;29;20107;-78
2023/09/23 07:27:49;;;;;;;0.05;0.05;;;17.80;65.10;;;;;;4920272;29;20126;-78
2023/09/23 07:30:15;;;;;;;0.10;0.10;;;17.50;64.20;;;;;;4920978;29;20059;-78
2023/09/23 07:32:41;;;;;;;0.10;0.10;;;17.00;64.60;;;;;;4920223;29;20055;-84
2023/09/23 07:35:07;;;;;;;0.10;0.10;;;16.50;65.40;;;;;;4920357;29;20054;-79
2023/09/23 07:37:34;;;;;;;0.10;0.10;;;16.30;66.60;;;;;;4938068;29;20099;-79
2023/09/23 07:40:00;;;;;;;0.10;0.10;;;16.00;67.00;;;;;;4936749;29;20067;-84
2023/09/23 07:42:26;;;;;;;0.10;0.10;;;15.90;67.90;;;;;;4933972;29;20032;-85
2023/09/23 07:44:52;;;;;;;0.10;0.10;;;15.80;68.20;;;;;;4931452;29;20032;-90
2023/09/23 07:47:17;;;;;;;0.10;0.10;;;15.40;68.80;;;;;;4920585;29;20400;-76
2023/09/23 07:49:43;;;;;;;0.10;0.10;;;15.10;69.80;;;;;;4935906;29;20028;-77
2023/09/23 07:52:10;;;;;;;0.10;0.10;;;14.70;71.10;;;;;;4936430;29;20055;-77
2023/09/23 07:54:38;;;;;;;0.10;0.10;;;14.30;72.40;;;;;;4925130;29;20172;-78
2023/09/23 07:57:03;;;;;;;0.10;0.10;;;14.00;73.10;;;;;;4938347;29;20102;-78
2023/09/23 07:59:29;;;;;;;0.10;0.10;;;13.90;74.30;;;;;;4941515;29;20110;-78
2023/09/23 08:01:55;;;;;;;0.20;0.20;;;13.90;74.60;;;;;;4941358;29;20103;-78
2023/09/23 08:04:20;;;;;;;0.10;0.10;;;13.80;74.80;;;;;;4922441;29;20406;-77
2023/09/23 08:06:46;;;;;;;0.10;0.10;;;13.80;75.30;;;;;;4941507;29;20554;-78
2023/09/23 08:09:12;;;;;;;0.10;0.10;;;13.80;76.20;;;;;;4941729;29;20032;-77
2023/09/23 08:11:37;;;;;;;0.10;0.10;;;13.80;76.20;;;;;;4921555;29;20036;-78
2023/09/23 08:14:03;;;;;;;0.10;0.10;;;13.80;76.40;;;;;;4924956;29;20035;-78
2023/09/23 08:16:29;;;;;;;0.00;0.00;;;13.80;76.80;;;;;;4924619;29;20387;-78
2023/09/23 08:18:54;;;;;;;0.10;0.10;;;13.80;76.30;;;;;;4940390;29;20036;-78
2023/09/23 08:21:20;;;;;;;0.10;0.10;;;13.80;76.50;;;;;;4941906;29;20028;-77
2023/09/23 08:23:46;;;;;;;0.00;0.00;;;13.80;76.90;;;;;;4941662;29;20124;-78
2023/09/23 08:26:11;;;;;;;0.10;0.10;;;13.80;78.10;;;;;;4924270;29;20055;-77
2023/09/23 08:28:37;;;;;;;0.10;0.10;;;13.90;77.30;;;;;;4923783;29;20035;-78
2023/09/23 08:31:03;;;;;;;0.10;0.10;;;14.00;77.60;;;;;;4941805;29;20039;-78
2023/09/23 08:33:29;;;;;;;0.10;0.10;;;14.00;77.10;;;;;;4940495;29;20035;-78
2023/09/23 08:35:55;;;;;;;0.10;0.10;;;14.10;76.90;;;;;;4941803;29;20037;-78
2023/09/23 08:38:21;;;;;;;0.10;0.10;;;14.20;76.90;;;;;;4938602;29;20922;-78
2023/09/23 08:40:47;;;;;;;0.08;0.08;;;14.30;77.20;;;;;;4940719;29;20024;-78
2023/09/23 08:43:12;;;;;;;0.10;0.10;;;14.30;77.40;;;;;;4924085;29;20542;-78
2023/09/23 08:45:43;;;;;;;0.10;0.10;;;14.50;77.20;;;;;;4924059;29;20027;-78
2023/09/23 08:48:11;;;;;;;0.10;0.10;;;14.60;76.60;;;;;;4937577;29;20035;-78
2023/09/23 08:50:42;;;;;;;0.13;0.13;;;14.70;76.50;;;;;;4923810;29;20442;-78
2023/09/23 08:53:08;;;;;;;0.10;0.10;;;14.70;76.80;;;;;;4939966;29;21606;-77
2023/09/23 08:55:34;;;;;;;0.10;0.10;;;14.60;76.50;;;;;;4937956;29;20028;-78
2023/09/23 08:58:04;;;;;;;0.10;0.10;;;14.60;77.30;;;;;;4922377;29;20035;-78
2023/09/23 09:00:30;;;;;;;0.10;0.10;;;14.70;76.50;;;;;;4940537;29;20102;-77
2023/09/23 09:02:57;;;;;;;0.10;0.10;;;14.80;76.50;;;;;;4940423;29;20470;-78
2023/09/23 09:05:23;;;;;;;0.10;0.10;;;14.80;76.00;;;;;;4939085;29;20020;-78
2023/09/23 09:07:49;;;;;;;0.10;0.10;;;15.00;77.10;;;;;;4921634;29;20435;-77
2023/09/23 09:10:17;;;;;;;0.10;0.10;;;15.30;76.00;;;;;;4921871;29;20064;-78
2023/09/23 09:12:43;;;;;;;0.10;0.10;;;15.40;75.80;;;;;;4921208;29;20870;-78
2023/09/23 09:15:09;;;;;;;0.10;0.10;;;15.50;74.40;;;;;;4923453;29;20078;-78
2023/09/23 09:17:35;;;;;;;0.10;0.10;;;15.70;73.90;;;;;;4938939;29;20047;-78
2023/09/23 09:20:11;;;;;;;0.10;0.10;;;15.80;73.50;;;;;;4940544;29;20027;-78
2023/09/23 09:22:39;;;;;;;0.10;0.10;;;16.00;73.10;;;;;;4940798;29;20024;-78
2023/09/23 09:25:05;;;;;;;0.10;0.10;;;16.00;71.30;;;;;;4936210;29;20027;-81
2023/09/23 09:27:34;;;;;;;0.10;0.10;;;16.10;72.00;;;;;;4940683;29;20034;-78
2023/09/23 09:30:00;;;;;;;0.10;0.10;;;16.20;71.90;;;;;;4923376;29;20034;-75
2023/09/23 09:32:29;;;;;;;0.10;0.10;;;16.20;71.70;;;;;;4937863;29;20048;-87
2023/09/23 09:34:59;;;;;;;0.00;0.00;;;16.20;71.70;;;;;;4911630;29;20038;-75
2023/09/23 09:37:27;;;;;;;0.10;0.10;;;16.30;71.60;;;;;;4928789;29;20055;-84
2023/09/23 09:39:57;;;;;;;0.10;0.10;;;16.30;71.40;;;;;;4924053;29;20683;-85
2023/09/23 09:42:34;;;;;;;0.10;0.10;;;16.30;70.30;;;;;;4939628;29;20483;-82
2023/09/23 09:45:04;;;;;;;0.10;0.10;;;16.40;69.50;;;;;;4933380;29;20121;-83
2023/09/23 09:47:30;;;;;;;0.10;0.10;;;16.30;67.40;;;;;;4921652;29;20031;-81
2023/09/23 09:49:57;;;;;;;0.10;0.10;;;16.30;70.30;;;;;;4922938;29;20031;-78
2023/09/23 09:52:27;;;;;;;0.10;0.10;;;16.40;70.30;;;;;;4939734;29;20070;-80
2023/09/23 09:55:00;;;;;;;0.10;0.10;;;16.40;70.00;;;;;;4937931;29;20028;-81
2023/09/23 09:57:29;;;;;;;0.10;0.10;;;16.50;69.10;;;;;;4923323;29;20035;-86
2023/09/23 10:00:01;;;;;;;0.10;0.10;;;16.40;65.40;;;;;;4939124;29;20068;-88
2023/09/23 10:02:32;;;;;;;0.10;0.10;;;16.50;66.70;;;;;;4932912;29;20047;-84
2023/09/23 10:05:02;;;;;;;0.10;0.10;;;16.50;65.90;;;;;;4938523;29;20044;-89
2023/09/23 10:07:51;;;;;;;0.10;0.10;;;16.60;65.70;;;;;;4938400;29;20028;-84
2023/09/23 10:10:17;;;;;;;0.10;0.10;;;16.70;65.60;;;;;;4931984;29;20031;-89
2023/09/23 10:12:49;;;;;;;0.10;0.10;;;16.80;64.90;;;;;;4940278;29;20038;-90
2023/09/23 10:15:26;;;;;;;0.00;0.00;;;16.80;65.00;;;;;;4937522;29;20446;-85
2023/09/23 10:17:54;;;;;;;0.10;0.10;;;16.80;65.40;;;;;;4918265;29;20111;-87
2023/09/23 10:20:24;;;;;;;0.10;0.10;;;16.80;63.80;;;;;;4939083;29;20035;-89
2023/09/23 10:22:52;;;;;;;0.00;0.00;;;16.90;64.50;;;;;;4920620;29;20032;-86
2023/09/23 10:25:19;;;;;;;0.10;0.10;;;17.00;62.80;;;;;;4938955;29;20419;-79
2023/09/23 10:27:59;;;;;;;0.10;0.10;;;17.10;62.60;;;;;;4922432;29;20036;-78
2023/09/23 10:30:26;;;;;;;0.10;0.10;;;17.20;63.00;;;;;;4909550;29;21207;-80
2023/09/23 10:32:51;;;;;;;0.00;0.00;;;17.20;58.00;;;;;;4916793;29;20654;-83
2023/09/23 10:35:24;;;;;;;0.00;0.00;;;17.20;60.30;;;;;;4930553;29;20099;-85
2023/09/23 10:37:49;;;;;;;0.00;0.00;;;17.20;60.50;;;;;;4903560;29;20060;-83
2023/09/23 10:40:17;;;;;;;0.10;0.10;;;17.10;57.40;;;;;;4925732;29;20103;-82
2023/09/23 10:42:46;;;;;;;0.10;0.10;;;17.20;58.60;;;;;;4938217;29;20024;-81
2023/09/23 10:45:13;;;;;;;0.00;0.00;;;17.20;55.40;;;;;;4913315;29;20054;-78
2023/09/23 10:47:39;;;;;;;0.10;0.10;;;17.30;55.30;;;;;;4928337;29;20028;-79
2023/09/23 10:50:06;;;;;;;0.00;0.00;;;17.40;55.40;;;;;;4902656;29;20036;-78
2023/09/23 10:52:33;;;;;;;0.10;0.10;;;17.40;54.60;;;;;;4906562;29;20040;-84
2023/09/23 10:54:58;;;;;;;0.10;0.10;;;17.40;54.70;;;;;;4902962;29;20044;-77
2023/09/23 10:57:25;;;;;;;0.10;0.10;;;17.50;52.30;;;;;;4926612;29;20024;-79
2023/09/23 10:59:51;;;;;;;0.10;0.10;;;17.70;52.70;;;;;;4902613;29;20410;-83
2023/09/23 11:02:19;;;;;;;0.00;0.00;;;18.00;52.70;;;;;;4903324;29;20121;-79
2023/09/23 11:04:46;;;;;;;0.15;0.10;;;18.00;54.60;;;;;;4928238;29;20019;-80
2023/09/23 11:07:12;;;;;;;0.00;0.00;;;18.00;54.10;;;;;;4917508;29;20050;-79
2023/09/23 11:09:38;;;;;;;0.00;0.00;;;17.80;53.90;;;;;;4902533;29;20028;-78
2023/09/23 11:12:27;;;;;;;0.10;0.10;;;17.70;53.60;;;;;;4931339;29;20031;-78
2023/09/23 11:14:53;;;;;;;0.10;0.10;;;17.60;52.90;;;;;;4932905;29;20463;-78
2023/09/23 11:17:30;;;;;;;0.10;0.10;;;17.70;52.90;;;;;;4916453;29;20083;-78
2023/09/23 11:19:57;;;;;;;0.10;0.10;;;17.80;53.20;;;;;;4916995;29;20114;-78
2023/09/23 11:22:27;;;;;;;0.00;0.00;;;17.90;51.40;;;;;;4936202;29;20079;-78
2023/09/23 11:24:57;;;;;;;0.10;0.10;;;18.00;50.20;;;;;;4935118;29;20821;-78
2023/09/23 11:27:24;;;;;;;0.00;0.00;;;17.90;51.80;;;;;;4936823;29;20032;-77
2023/09/23 11:29:51;;;;;;;0.10;0.10;;;17.80;51.40;;;;;;4918882;29;20115;-78
2023/09/23 11:32:24;;;;;;;0.00;0.00;;;17.80;49.90;;;;;;4936821;29;20051;-78
2023/09/23 11:34:50;;;;;;;0.10;0.10;;;17.70;49.90;;;;;;4936999;29;20043;-79
2023/09/23 11:37:18;;;;;;;0.10;0.10;;;17.80;50.60;;;;;;4935011;29;20032;-77
2023/09/23 11:39:43;;;;;;;0.10;0.10;;;18.10;50.20;;;;;;4936301;29;20081;-77
2023/09/23 11:42:09;;;;;;;0.10;0.10;;;18.30;50.80;;;;;;4920530;29;20403;-76
2023/09/23 11:44:35;;;;;;;0.10;0.10;;;18.70;48.90;;;;;;4936766;29;20035;-76
2023/09/23 11:47:00;;;;;;;0.10;0.10;;;18.80;46.50;;;;;;4936799;29;20074;-77
2023/09/23 11:49:29;;;;;;;0.00;0.00;;;18.90;49.00;;;;;;4919027;29;20032;-77
2023/09/23 11:51:55;;;;;;;0.08;0.08;;;18.80;46.30;;;;;;4919189;29;20119;-77
2023/09/23 11:54:20;;;;;;;0.00;0.00;;;18.90;46.70;;;;;;4902952;29;20063;-78
2023/09/23 11:56:46;;;;;;;0.00;0.00;;;18.70;48.00;;;;;;4920209;29;20034;-78
2023/09/23 11:59:14;;;;;;;0.08;0.08;;;18.70;48.00;;;;;;4920508;29;20538;-77
2023/09/23 12:01:40;;;;;;;0.05;0.05;;;18.80;47.20;;;;;;4918262;29;20024;-78
2023/09/23 12:04:06;;;;;;;0.10;0.10;;;19.00;45.60;;;;;;4919610;29;20020;-77
2023/09/23 12:06:36;;;;;;;0.10;0.10;;;19.20;47.70;;;;;;4938007;29;20020;-77
2023/09/23 12:09:08;;;;;;;0.10;0.10;;;19.30;47.60;;;;;;4935575;29;20032;-78
2023/09/23 12:11:34;;;;;;;0.00;0.00;;;19.40;48.00;;;;;;4919656;29;20023;-77
2023/09/23 12:14:00;;;;;;;0.10;0.10;;;19.50;47.70;;;;;;4936472;29;20028;-77
2023/09/23 12:16:26;;;;;;;0.05;0.05;;;19.40;48.30;;;;;;4934385;29;20058;-78
2023/09/23 12:18:52;;;;;;;0.00;0.00;;;19.40;46.60;;;;;;4936259;29;20558;-77
2023/09/23 12:21:17;;;;;;;0.10;0.10;;;19.40;48.20;;;;;;4935713;29;20023;-77
2023/09/23 12:23:43;;;;;;;0.03;0.03;;;19.30;46.50;;;;;;4935951;29;20443;-78
2023/09/23 12:26:11;;;;;;;0.10;0.10;;;19.30;45.60;;;;;;4918339;29;20031;-78
2023/09/23 12:28:37;;;;;;;0.00;0.00;;;19.30;47.90;;;;;;4935461;29;20119;-77
2023/09/23 12:31:03;;;;;;;0.10;0.10;;;19.20;48.00;;;;;;4934609;29;20047;-77
2023/09/23 12:33:29;;;;;;;0.10;0.10;;;19.10;47.80;;;;;;4936192;29;20558;-77
2023/09/23 12:35:55;;;;;;;0.10;0.10;;;19.00;48.60;;;;;;4935267;29;20076;-78
2023/09/23 12:38:20;;;;;;;0.00;0.00;;;19.00;49.40;;;;;;4916411;29;20046;-78
2023/09/23 12:40:46;;;;;;;0.10;0.10;;;19.00;49.10;;;;;;4936531;29;20019;-77
2023/09/23 12:43:12;;;;;;;0.00;0.00;;;19.00;49.10;;;;;;4938663;29;20030;-77
2023/09/23 12:45:40;;;;;;;0.10;0.10;;;19.10;49.70;;;;;;4932684;29;20028;-78
2023/09/23 12:48:12;;;;;;;0.10;0.10;;;19.20;49.20;;;;;;4925277;29;20024;-77
2023/09/23 12:50:40;;;;;;;0.10;0.10;;;19.30;49.50;;;;;;4923606;29;20080;-77
2023/09/23 12:53:06;;;;;;;0.10;0.10;;;19.30;49.80;;;;;;4925351;29;20113;-78
2023/09/23 12:55:32;;;;;;;0.10;0.10;;;19.30;49.00;;;;;;4923045;29;20154;-78
2023/09/23 12:57:58;;;;;;;0.10;0.10;;;19.40;49.60;;;;;;4923177;29;20054;-77
2023/09/23 13:00:24;;;;;;;0.13;0.10;;;19.40;50.30;;;;;;4905752;29;20028;-78
2023/09/23 13:02:50;;;;;;;0.00;0.00;;;19.40;49.80;;;;;;4906916;29;20039;-77
2023/09/23 13:05:16;;;;;;;0.00;0.00;;;19.50;48.50;;;;;;4908541;29;20084;-77
2023/09/23 13:07:45;;;;;;;0.10;0.10;;;19.60;49.50;;;;;;4911423;29;20471;-78
2023/09/23 13:10:14;;;;;;;0.10;0.10;;;19.70;49.60;;;;;;4939585;29;20091;-78
2023/09/23 13:12:39;;;;;;;0.10;0.10;;;19.90;49.40;;;;;;4940209;29;20038;-79
2023/09/23 13:15:06;;;;;;;0.00;0.00;;;19.90;47.90;;;;;;4939278;29;20023;-84
2023/09/23 13:17:32;;;;;;;0.00;0.00;;;20.00;47.80;;;;;;4935839;29;20059;-79
2023/09/23 13:19:58;;;;;;;0.00;0.00;;;20.00;47.10;;;;;;4938381;29;20028;-78
2023/09/23 13:22:24;;;;;;;0.10;0.10;;;20.00;48.70;;;;;;4940065;29;20024;-78
2023/09/23 13:24:51;;;;;;;0.10;0.10;;;19.80;48.50;;;;;;4921798;29;20632;-80
2023/09/23 13:27:17;;;;;;;0.00;0.00;;;19.80;49.80;;;;;;4923381;29;20097;-79
2023/09/23 13:29:43;;;;;;;0.00;0.00;;;19.60;49.80;;;;;;4923017;29;20028;-80
2023/09/23 13:32:09;;;;;;;0.10;0.10;;;19.50;50.60;;;;;;4938471;29;20054;-78
2023/09/23 13:34:35;;;;;;;0.00;0.00;;;19.40;49.70;;;;;;4923399;29;20024;-76
2023/09/23 13:37:02;;;;;;;0.10;0.10;;;19.50;50.80;;;;;;4921694;29;20039;-76
2023/09/23 13:39:27;;;;;;;0.00;0.00;;;19.50;48.70;;;;;;4921281;29;20461;-76
2023/09/23 13:41:54;;;;;;;0.03;0.03;;;19.60;51.50;;;;;;4922157;29;20127;-76
2023/09/23 13:44:24;;;;;;;0.08;0.08;;;19.50;49.80;;;;;;4936453;29;20379;-75
2023/09/23 13:46:50;;;;;;;0.00;0.00;;;19.50;51.40;;;;;;4921351;29;20731;-76
2023/09/23 13:49:16;;;;;;;0.00;0.00;;;19.60;50.90;;;;;;4923549;29;20510;-78
2023/09/23 13:51:42;;;;;;;0.00;0.00;;;19.70;51.60;;;;;;4940794;29;20035;-76
2023/09/23 13:54:07;;;;;;;0.05;0.05;;;19.60;51.30;;;;;;4937459;29;20068;-76
2023/09/23 13:56:33;;;;;;;0.10;0.10;;;19.50;51.40;;;;;;4939357;29;20032;-77
2023/09/23 13:58:59;;;;;;;0.00;0.00;;;19.30;51.50;;;;;;4935866;29;20573;-76
2023/09/23 14:01:26;;;;;;;0.00;0.00;;;19.20;51.70;;;;;;4935409;29;20034;-77
2023/09/23 14:03:51;;;;;;;0.10;0.10;;;19.10;52.10;;;;;;4921657;29;20121;-75
2023/09/23 14:06:17;;;;;;;0.00;0.00;;;19.10;52.00;;;;;;4920499;29;20036;-79
2023/09/23 14:08:43;;;;;;;0.00;0.00;;;19.10;52.60;;;;;;4921487;29;20031;-76
2023/09/23 14:11:09;;;;;;;0.10;0.10;;;19.20;51.20;;;;;;4934149;29;20035;-78
2023/09/23 14:13:35;;;;;;;0.00;0.00;;;19.30;51.30;;;;;;4937476;29;20028;-79
2023/09/23 14:16:00;;;;;;;0.00;0.00;;;19.30;51.60;;;;;;4920764;29;20028;-78
2023/09/23 14:18:26;;;;;;;0.10;0.10;;;19.20;51.70;;;;;;4920300;29;20028;-77
2023/09/23 14:20:52;;;;;;;0.00;0.00;;;19.20;51.60;;;;;;4936641;29;20032;-78
2023/09/23 14:23:18;;;;;;;0.10;0.10;;;19.20;52.50;;;;;;4937503;29;20055;-78
2023/09/23 14:25:43;;;;;;;0.08;0.08;;;19.30;52.90;;;;;;4936679;29;20028;-77
2023/09/23 14:28:09;;;;;;;0.10;0.10;;;19.20;51.50;;;;;;4921174;29;20035;-85
2023/09/23 14:30:35;;;;;;;0.00;0.00;;;19.00;51.00;;;;;;4921339;29;20064;-78
2023/09/23 14:33:01;;;;;;;0.10;0.10;;;18.90;50.70;;;;;;4936906;29;20038;-77
2023/09/23 14:35:27;;;;;;;0.00;0.00;;;18.70;51.80;;;;;;4938169;29;20058;-77
2023/09/23 14:37:52;;;;;;;0.00;0.00;;;18.80;51.30;;;;;;4935623;29;20589;-75
2023/09/23 14:40:18;;;;;;;0.10;0.10;;;18.90;51.80;;;;;;4934304;29;20473;-75
2023/09/23 14:42:44;;;;;;;0.10;0.10;;;19.00;52.90;;;;;;4937811;29;20020;-77
2023/09/23 14:45:09;;;;;;;0.00;0.00;;;19.00;52.80;;;;;;4935037;29;20058;-76
2023/09/23 14:47:36;;;;;;;0.00;0.00;;;19.00;52.10;;;;;;4937900;29;20517;-76
2023/09/23 14:50:03;;;;;;;0.10;0.10;;;19.10;52.30;;;;;;4937368;29;20023;-77
2023/09/23 14:52:29;;;;;;;0.10;0.10;;;19.10;51.60;;;;;;4938260;29;20031;-77
2023/09/23 14:54:55;;;;;;;0.00;0.00;;;19.30;51.70;;;;;;4919309;29;20643;-77
2023/09/23 14:57:21;;;;;;;0.10;0.10;;;19.50;51.30;;;;;;4921263;29;20462;-77
2023/09/23 14:59:48;;;;;;;0.03;0.03;;;19.60;50.60;;;;;;4918198;29;20038;-77
2023/09/23 15:02:14;;;;;;;0.00;0.00;;;19.70;51.50;;;;;;4932136;29;20075;-77
2023/09/23 15:04:40;;;;;;;0.03;0.03;;;19.70;51.70;;;;;;4937146;29;20023;-77
2023/09/23 15:07:05;;;;;;;0.00;0.00;;;19.50;50.00;;;;;;4937730;29;20028;-77
2023/09/23 15:09:32;;;;;;;0.10;0.10;;;19.40;51.10;;;;;;4935391;29;20036;-77
2023/09/23 15:11:58;;;;;;;0.00;0.00;;;19.30;52.20;;;;;;4938139;29;20372;-77
2023/09/23 15:14:24;;;;;;;0.00;0.00;;;19.30;52.20;;;;;;4937717;29;20122;-77
2023/09/23 15:16:50;;;;;;;0.10;0.10;;;19.20;52.70;;;;;;4937870;29;20028;-77
2023/09/23 15:19:18;;;;;;;0.00;0.00;;;19.00;52.70;;;;;;4919230;29;20050;-77
2023/09/23 15:21:44;;;;;;;0.00;0.00;;;18.90;52.40;;;;;;4938879;29;20106;-77
2023/09/23 15:24:10;;;;;;;0.10;0.10;;;18.90;54.00;;;;;;4938035;29;20035;-77
2023/09/23 15:26:36;;;;;;;0.00;0.00;;;18.90;54.10;;;;;;4935312;29;20101;-78
2023/09/23 15:29:02;;;;;;;0.00;0.00;;;18.80;53.40;;;;;;4938229;29;20447;-77
2023/09/23 15:31:28;;;;;;;0.00;0.00;;;18.70;52.70;;;;;;4938307;29;20502;-77
2023/09/23 15:33:55;;;;;;;0.08;0.08;;;18.60;54.50;;;;;;4936920;29;20032;-77
2023/09/23 15:36:21;;;;;;;0.10;0.10;;;18.50;53.80;;;;;;4937056;29;20764;-78
2023/09/23 15:38:46;;;;;;;0.10;0.10;;;18.50;54.20;;;;;;4937831;29;20080;-77
2023/09/23 15:41:12;;;;;;;0.00;0.00;;;18.40;54.10;;;;;;4934735;29;20159;-78
2023/09/23 15:43:41;;;;;;;0.00;0.00;;;18.40;54.70;;;;;;4938085;29;20028;-78
2023/09/23 15:46:07;;;;;;;0.00;0.00;;;18.50;54.60;;;;;;4937688;29;20487;-78
2023/09/23 15:48:33;;;;;;;0.10;0.10;;;18.60;55.20;;;;;;4937218;29;20028;-76
2023/09/23 15:51:10;;;;;;;0.00;0.00;;;18.60;53.80;;;;;;4919802;29;20034;-78
2023/09/23 15:53:37;;;;;;;0.00;0.00;;;18.60;53.40;;;;;;4920307;29;20442;-77
2023/09/23 15:56:06;;;;;;;0.10;0.10;;;18.50;52.80;;;;;;4937280;29;20064;-76
2023/09/23 15:58:38;;;;;;;0.05;0.05;;;18.60;52.70;;;;;;4919227;29;20032;-77
2023/09/23 16:01:07;;;;;;;0.05;0.05;;;18.70;52.50;;;;;;4935172;29;20032;-77
2023/09/23 16:03:33;;;;;;;0.03;0.03;;;18.90;53.00;;;;;;4916273;29;20028;-75
2023/09/23 16:06:00;;;;;;;0.00;0.00;;;19.00;52.70;;;;;;4919890;29;20797;-79
2023/09/23 16:08:26;;;;;;;0.10;0.10;;;19.00;52.70;;;;;;4934668;29;20079;-75
2023/09/23 16:10:52;;;;;;;0.10;0.10;;;19.00;51.80;;;;;;4936305;29;20020;-82
2023/09/23 16:13:18;;;;;;;0.00;0.00;;;18.80;50.90;;;;;;4936877;29;20028;-76
2023/09/23 16:15:44;;;;;;;0.00;0.00;;;18.80;51.70;;;;;;4919128;29;20036;-77
2023/09/23 16:18:11;;;;;;;0.10;0.10;;;18.70;51.70;;;;;;4939284;29;20027;-76
2023/09/23 16:20:37;;;;;;;0.00;0.00;;;18.60;52.10;;;;;;4938715;29;20490;-78
2023/09/23 16:23:07;;;;;;;0.00;0.00;;;18.60;52.30;;;;;;4941109;29;20019;-79
2023/09/23 16:25:33;;;;;;;0.00;0.00;;;18.40;50.90;;;;;;4940783;29;20043;-76
2023/09/23 16:27:59;;;;;;;0.00;0.00;;;18.20;52.50;;;;;;4938533;29;20032;-76
2023/09/23 16:30:25;;;;;;;0.00;0.00;;;18.10;53.00;;;;;;4939754;29;20090;-78
2023/09/23 16:32:51;;;;;;;0.10;0.10;;;18.00;52.90;;;;;;4922652;29;20032;-78
2023/09/23 16:35:17;;;;;;;0.00;0.00;;;17.90;53.50;;;;;;4936501;29;20806;-77
2023/09/23 16:37:43;;;;;;;0.10;0.10;;;18.00;54.20;;;;;;4941927;29;20036;-78
2023/09/23 16:40:10;;;;;;;0.00;0.00;;;18.10;54.00;;;;;;4939493;29;20034;-78
2023/09/23 16:42:36;;;;;;;0.00;0.00;;;18.10;53.70;;;;;;4941435;29;20079;-78
2023/09/23 16:45:03;;;;;;;0.00;0.00;;;18.10;54.20;;;;;;4938741;29;20024;-76
2023/09/23 16:47:28;;;;;;;0.00;0.00;;;18.00;53.90;;;;;;4940771;29;20028;-77
2023/09/23 16:49:54;;;;;;;0.00;0.00;;;18.00;54.30;;;;;;4939826;29;20034;-82
2023/09/23 16:52:20;;;;;;;0.10;0.10;;;17.90;54.90;;;;;;4922190;29;20035;-77
2023/09/23 16:54:49;;;;;;;0.00;0.00;;;17.80;55.30;;;;;;4920661;29;20071;-76
2023/09/23 16:57:18;;;;;;;0.10;0.10;;;17.90;55.70;;;;;;4923423;29;20028;-78
2023/09/23 16:59:45;;;;;;;0.03;0.03;;;17.90;55.30;;;;;;4922711;29;20040;-77
2023/09/23 17:02:11;;;;;;;0.00;0.00;;;17.80;55.10;;;;;;4938792;29;20562;-80
2023/09/23 17:04:37;;;;;;;0.00;0.00;;;17.80;55.80;;;;;;4922759;29;20023;-76
2023/09/23 17:07:03;;;;;;;0.00;0.00;;;17.80;56.00;;;;;;4922638;29;20426;-78
2023/09/23 17:09:31;;;;;;;0.00;0.00;;;17.70;55.40;;;;;;4920870;29;20035;-77
2023/09/23 17:11:56;;;;;;;0.00;0.00;;;17.70;55.90;;;;;;4940272;29;20130;-76
2023/09/23 17:14:22;;;;;;;0.00;0.00;;;17.70;56.70;;;;;;4922991;29;20439;-81
2023/09/23 17:16:59;;;;;;;0.00;0.00;;;17.70;56.60;;;;;;4935396;29;20106;-83